sensor_id;sensor_type;location;lat;lon;timestamp;pressure;altitude;pressure_sealevel;temperature;humidity
66801;BME280;53703;50.326;19.122;2023-08-08T00:00:54;98318.92;;;19.26;63.51
66801;BME280;53703;50.326;19.122;2023-08-08T00:03:38;98319.45;;;19.26;63.37
66801;BME280;53703;50.326;19.122;2023-08-08T00:06:12;98322.32;;;19.27;63.42
66801;BME280;53703;50.326;19.122;2023-08-08T00:08:45;98326.38;;;19.28;63.27
66801;BME280;53703;50.326;19.122;2023-08-08T00:11:18;98329.37;;;19.27;63.52
66801;BME280;53703;50.326;19.122;2023-08-08T00:13:51;98328.52;;;19.24;63.34
66801;BME280;53703;50.326;19.122;2023-08-08T00:16:25;98328.69;;;19.25;63.33
66801;BME280;53703;50.326;19.122;2023-08-08T00:18:58;98323.98;;;19.26;63.29
66801;BME280;53703;50.326;19.122;2023-08-08T00:21:31;98326.95;;;19.25;63.25
66801;BME280;53703;50.326;19.122;2023-08-08T00:24:05;98327.52;;;19.26;63.28
66801;BME280;53703;50.326;19.122;2023-08-08T00:26:39;98328.51;;;19.27;63.09
66801;BME280;53703;50.326;19.122;2023-08-08T00:29:12;98330.73;;;19.28;63.02
66801;BME280;53703;50.326;19.122;2023-08-08T00:31:45;98335.14;;;19.27;62.95
66801;BME280;53703;50.326;19.122;2023-08-08T00:34:18;98332.57;;;19.25;62.84
66801;BME280;53703;50.326;19.122;2023-08-08T00:36:51;98337.34;;;19.27;63.04
66801;BME280;53703;50.326;19.122;2023-08-08T00:39:25;98336.31;;;19.27;62.80
66801;BME280;53703;50.326;19.122;2023-08-08T00:41:58;98335.36;;;19.26;63.00
66801;BME280;53703;50.326;19.122;2023-08-08T00:44:32;98339.80;;;19.27;62.83
66801;BME280;53703;50.326;19.122;2023-08-08T00:47:06;98340.23;;;19.25;62.77
66801;BME280;53703;50.326;19.122;2023-08-08T00:49:39;98342.45;;;19.25;62.95
66801;BME280;53703;50.326;19.122;2023-08-08T00:52:13;98349.41;;;19.25;62.75
66801;BME280;53703;50.326;19.122;2023-08-08T00:54:47;98347.74;;;19.25;62.74
66801;BME280;53703;50.326;19.122;2023-08-08T00:57:20;98352.33;;;19.25;62.84
66801;BME280;53703;50.326;19.122;2023-08-08T00:59:54;98353.14;;;19.26;62.70
66801;BME280;53703;50.326;19.122;2023-08-08T01:02:27;98353.45;;;19.26;62.56
66801;BME280;53703;50.326;19.122;2023-08-08T01:05:01;98356.62;;;19.26;62.55
66801;BME280;53703;50.326;19.122;2023-08-08T01:07:41;98356.01;;;19.24;62.64
66801;BME280;53703;50.326;19.122;2023-08-08T01:10:19;98354.29;;;19.24;62.46
66801;BME280;53703;50.326;19.122;2023-08-08T01:12:59;98356.10;;;19.24;62.48
66801;BME280;53703;50.326;19.122;2023-08-08T01:15:34;98355.44;;;19.23;62.55
66801;BME280;53703;50.326;19.122;2023-08-08T01:18:10;98352.91;;;19.23;62.32
66801;BME280;53703;50.326;19.122;2023-08-08T01:20:44;98356.46;;;19.23;62.29
66801;BME280;53703;50.326;19.122;2023-08-08T01:23:26;98356.64;;;19.24;62.46
66801;BME280;53703;50.326;19.122;2023-08-08T01:26:01;98355.98;;;19.22;62.33
66801;BME280;53703;50.326;19.122;2023-08-08T01:28:36;98360.73;;;19.22;62.37
66801;BME280;53703;50.326;19.122;2023-08-08T01:31:10;98359.95;;;19.24;62.16
66801;BME280;53703;50.326;19.122;2023-08-08T01:33:43;98361.26;;;19.21;61.87
66801;BME280;53703;50.326;19.122;2023-08-08T01:36:22;98359.80;;;19.20;61.80
66801;BME280;53703;50.326;19.122;2023-08-08T01:39:00;98356.38;;;19.22;61.90
66801;BME280;53703;50.326;19.122;2023-08-08T01:41:39;98353.56;;;19.20;61.86
66801;BME280;53703;50.326;19.122;2023-08-08T01:44:13;98358.37;;;19.19;61.96
66801;BME280;53703;50.326;19.122;2023-08-08T01:46:47;98356.48;;;19.19;61.84
66801;BME280;53703;50.326;19.122;2023-08-08T01:49:20;98354.72;;;19.19;61.90
66801;BME280;53703;50.326;19.122;2023-08-08T01:51:53;98360.34;;;19.19;61.78
66801;BME280;53703;50.326;19.122;2023-08-08T01:54:27;98358.90;;;19.18;61.59
66801;BME280;53703;50.326;19.122;2023-08-08T01:57:01;98360.79;;;19.18;61.48
66801;BME280;53703;50.326;19.122;2023-08-08T01:59:34;98361.34;;;19.17;61.50
66801;BME280;53703;50.326;19.122;2023-08-08T02:02:08;98360.58;;;19.19;61.66
66801;BME280;53703;50.326;19.122;2023-08-08T02:04:41;98357.70;;;19.17;61.52
66801;BME280;53703;50.326;19.122;2023-08-08T02:07:15;98361.11;;;19.18;61.52
66801;BME280;53703;50.326;19.122;2023-08-08T02:09:48;98360.10;;;19.19;61.51
66801;BME280;53703;50.326;19.122;2023-08-08T02:12:22;98361.20;;;19.18;61.58
66801;BME280;53703;50.326;19.122;2023-08-08T02:14:56;98364.49;;;19.21;61.64
66801;BME280;53703;50.326;19.122;2023-08-08T02:17:30;98369.38;;;19.20;61.62
66801;BME280;53703;50.326;19.122;2023-08-08T02:20:04;98371.34;;;18.97;61.45
66801;BME280;53703;50.326;19.122;2023-08-08T02:22:38;98374.63;;;19.18;61.61
66801;BME280;53703;50.326;19.122;2023-08-08T02:25:12;98378.02;;;19.18;61.80
66801;BME280;53703;50.326;19.122;2023-08-08T02:27:45;98378.08;;;19.20;61.61
66801;BME280;53703;50.326;19.122;2023-08-08T02:30:19;98382.30;;;19.18;61.46
66801;BME280;53703;50.326;19.122;2023-08-08T02:32:52;98379.95;;;19.16;61.66
66801;BME280;53703;50.326;19.122;2023-08-08T02:35:25;98380.48;;;19.15;61.59
66801;BME280;53703;50.326;19.122;2023-08-08T02:37:58;98386.10;;;19.15;61.56
66801;BME280;53703;50.326;19.122;2023-08-08T02:40:32;98387.55;;;19.12;61.50
66801;BME280;53703;50.326;19.122;2023-08-08T02:43:05;98390.18;;;19.13;61.56
66801;BME280;53703;50.326;19.122;2023-08-08T02:45:39;98389.23;;;19.09;61.48
66801;BME280;53703;50.326;19.122;2023-08-08T02:48:12;98393.45;;;19.10;61.66
66801;BME280;53703;50.326;19.122;2023-08-08T02:50:45;98394.98;;;19.12;61.65
66801;BME280;53703;50.326;19.122;2023-08-08T02:53:18;98390.40;;;19.12;61.58
66801;BME280;53703;50.326;19.122;2023-08-08T02:55:52;98392.98;;;19.07;61.66
66801;BME280;53703;50.326;19.122;2023-08-08T02:58:25;98397.71;;;19.06;61.57
66801;BME280;53703;50.326;19.122;2023-08-08T03:00:59;98401.19;;;19.10;61.69
66801;BME280;53703;50.326;19.122;2023-08-08T03:03:32;98405.34;;;19.08;61.69
66801;BME280;53703;50.326;19.122;2023-08-08T03:06:06;98403.73;;;19.07;61.67
66801;BME280;53703;50.326;19.122;2023-08-08T03:08:39;98403.64;;;19.06;61.90
66801;BME280;53703;50.326;19.122;2023-08-08T03:11:12;98404.64;;;19.05;61.81
66801;BME280;53703;50.326;19.122;2023-08-08T03:13:46;98405.86;;;19.06;61.94
66801;BME280;53703;50.326;19.122;2023-08-08T03:16:19;98404.29;;;19.04;61.54
66801;BME280;53703;50.326;19.122;2023-08-08T03:18:52;98412.73;;;19.06;61.63
66801;BME280;53703;50.326;19.122;2023-08-08T03:21:26;98417.81;;;19.05;61.74
66801;BME280;53703;50.326;19.122;2023-08-08T03:24:00;98424.04;;;19.04;61.72
66801;BME280;53703;50.326;19.122;2023-08-08T03:26:33;98424.17;;;19.06;61.56
66801;BME280;53703;50.326;19.122;2023-08-08T03:29:06;98430.88;;;19.03;61.50
66801;BME280;53703;50.326;19.122;2023-08-08T03:31:42;98431.20;;;19.03;61.40
66801;BME280;53703;50.326;19.122;2023-08-08T03:34:15;98433.19;;;19.04;61.56
66801;BME280;53703;50.326;19.122;2023-08-08T03:36:49;98438.02;;;19.03;61.35
66801;BME280;53703;50.326;19.122;2023-08-08T03:39:23;98441.73;;;19.07;61.23
66801;BME280;53703;50.326;19.122;2023-08-08T03:41:57;98445.42;;;19.03;61.42
66801;BME280;53703;50.326;19.122;2023-08-08T03:44:30;98445.27;;;19.03;61.53
66801;BME280;53703;50.326;19.122;2023-08-08T03:47:04;98445.25;;;19.06;61.21
66801;BME280;53703;50.326;19.122;2023-08-08T03:49:50;98446.96;;;19.04;61.42
66801;BME280;53703;50.326;19.122;2023-08-08T03:52:27;98452.81;;;19.02;61.34
66801;BME280;53703;50.326;19.122;2023-08-08T03:55:00;98455.05;;;19.02;61.38
66801;BME280;53703;50.326;19.122;2023-08-08T03:57:34;98460.81;;;19.03;61.43
66801;BME280;53703;50.326;19.122;2023-08-08T04:00:09;98461.35;;;19.04;61.34
66801;BME280;53703;50.326;19.122;2023-08-08T04:02:44;98463.66;;;19.03;61.21
66801;BME280;53703;50.326;19.122;2023-08-08T04:05:17;98465.00;;;19.05;61.23
66801;BME280;53703;50.326;19.122;2023-08-08T04:07:51;98464.31;;;19.03;61.25
66801;BME280;53703;50.326;19.122;2023-08-08T04:10:24;98465.50;;;19.03;61.22
66801;BME280;53703;50.326;19.122;2023-08-08T04:12:57;98467.98;;;19.07;61.25
66801;BME280;53703;50.326;19.122;2023-08-08T04:15:31;98470.21;;;19.08;61.05
66801;BME280;53703;50.326;19.122;2023-08-08T04:18:04;98475.94;;;19.06;61.04
66801;BME280;53703;50.326;19.122;2023-08-08T04:20:38;98475.61;;;19.06;61.17
66801;BME280;53703;50.326;19.122;2023-08-08T04:23:11;98481.14;;;19.09;61.22
66801;BME280;53703;50.326;19.122;2023-08-08T04:25:45;98489.13;;;19.07;61.15
66801;BME280;53703;50.326;19.122;2023-08-08T04:28:18;98493.42;;;19.04;61.11
66801;BME280;53703;50.326;19.122;2023-08-08T04:30:52;98498.05;;;19.06;61.09
66801;BME280;53703;50.326;19.122;2023-08-08T04:33:25;98494.66;;;19.03;61.28
66801;BME280;53703;50.326;19.122;2023-08-08T04:35:58;98498.42;;;19.05;61.15
66801;BME280;53703;50.326;19.122;2023-08-08T04:38:32;98503.48;;;19.04;61.16
66801;BME280;53703;50.326;19.122;2023-08-08T04:41:05;98509.70;;;19.04;61.09
66801;BME280;53703;50.326;19.122;2023-08-08T04:43:38;98512.46;;;19.01;61.16
66801;BME280;53703;50.326;19.122;2023-08-08T04:46:12;98516.33;;;19.10;61.20
66801;BME280;53703;50.326;19.122;2023-08-08T04:48:45;98520.92;;;19.10;60.95
66801;BME280;53703;50.326;19.122;2023-08-08T04:51:18;98525.98;;;19.07;61.28
66801;BME280;53703;50.326;19.122;2023-08-08T04:53:51;98529.17;;;19.05;61.29
66801;BME280;53703;50.326;19.122;2023-08-08T04:56:25;98529.89;;;19.05;61.19
66801;BME280;53703;50.326;19.122;2023-08-08T04:59:01;98529.92;;;19.06;61.22
66801;BME280;53703;50.326;19.122;2023-08-08T05:01:34;98534.92;;;19.08;61.31
66801;BME280;53703;50.326;19.122;2023-08-08T05:04:08;98540.47;;;19.08;61.50
66801;BME280;53703;50.326;19.122;2023-08-08T05:06:41;98539.98;;;19.11;61.29
66801;BME280;53703;50.326;19.122;2023-08-08T05:09:15;98542.36;;;19.08;61.20
66801;BME280;53703;50.326;19.122;2023-08-08T05:11:48;98545.61;;;19.08;61.10
66801;BME280;53703;50.326;19.122;2023-08-08T05:14:22;98544.30;;;19.06;60.95
66801;BME280;53703;50.326;19.122;2023-08-08T05:16:55;98551.23;;;19.09;61.04
66801;BME280;53703;50.326;19.122;2023-08-08T05:19:29;98547.77;;;19.09;61.14
66801;BME280;53703;50.326;19.122;2023-08-08T05:22:02;98548.67;;;19.11;61.22
66801;BME280;53703;50.326;19.122;2023-08-08T05:24:35;98547.65;;;19.11;61.20
66801;BME280;53703;50.326;19.122;2023-08-08T05:27:09;98543.10;;;19.09;61.22
66801;BME280;53703;50.326;19.122;2023-08-08T05:29:43;98543.20;;;19.10;61.12
66801;BME280;53703;50.326;19.122;2023-08-08T05:32:16;98543.95;;;19.08;61.14
66801;BME280;53703;50.326;19.122;2023-08-08T05:34:51;98545.67;;;19.08;61.31
66801;BME280;53703;50.326;19.122;2023-08-08T05:37:24;98550.34;;;19.08;61.05
66801;BME280;53703;50.326;19.122;2023-08-08T05:39:58;98551.89;;;19.07;61.09
66801;BME280;53703;50.326;19.122;2023-08-08T05:42:31;98549.70;;;19.05;61.19
66801;BME280;53703;50.326;19.122;2023-08-08T05:45:06;98553.46;;;19.06;60.92
66801;BME280;53703;50.326;19.122;2023-08-08T05:47:40;98555.09;;;19.02;60.68
66801;BME280;53703;50.326;19.122;2023-08-08T05:50:13;98551.02;;;19.04;60.31
66801;BME280;53703;50.326;19.122;2023-08-08T05:52:47;98558.88;;;19.05;60.00
66801;BME280;53703;50.326;19.122;2023-08-08T05:55:20;98551.29;;;18.98;59.89
66801;BME280;53703;50.326;19.122;2023-08-08T05:57:53;98557.86;;;18.93;59.86
66801;BME280;53703;50.326;19.122;2023-08-08T06:00:27;98562.45;;;18.96;59.56
66801;BME280;53703;50.326;19.122;2023-08-08T06:03:00;98558.02;;;18.96;59.65
66801;BME280;53703;50.326;19.122;2023-08-08T06:05:34;98556.98;;;18.92;59.30
66801;BME280;53703;50.326;19.122;2023-08-08T06:08:08;98559.63;;;19.00;59.32
66801;BME280;53703;50.326;19.122;2023-08-08T06:10:44;98561.33;;;19.15;58.89
66801;BME280;53703;50.326;19.122;2023-08-08T06:13:17;98561.11;;;19.09;58.33
66801;BME280;53703;50.326;19.122;2023-08-08T06:15:50;98563.70;;;19.15;58.29
66801;BME280;53703;50.326;19.122;2023-08-08T06:18:24;98563.86;;;19.22;57.85
66801;BME280;53703;50.326;19.122;2023-08-08T06:20:57;98562.58;;;19.18;57.68
66801;BME280;53703;50.326;19.122;2023-08-08T06:23:30;98559.62;;;19.20;57.52
66801;BME280;53703;50.326;19.122;2023-08-08T06:26:03;98562.45;;;19.26;57.49
66801;BME280;53703;50.326;19.122;2023-08-08T06:28:37;98563.35;;;19.28;57.26
66801;BME280;53703;50.326;19.122;2023-08-08T06:31:10;98563.31;;;19.26;56.84
66801;BME280;53703;50.326;19.122;2023-08-08T06:33:43;98564.05;;;19.30;56.58
66801;BME280;53703;50.326;19.122;2023-08-08T06:36:17;98564.48;;;19.32;56.95
66801;BME280;53703;50.326;19.122;2023-08-08T06:38:50;98556.45;;;19.37;56.60
66801;BME280;53703;50.326;19.122;2023-08-08T06:41:23;98559.92;;;19.33;56.62
66801;BME280;53703;50.326;19.122;2023-08-08T06:43:56;98560.45;;;19.36;56.65
66801;BME280;53703;50.326;19.122;2023-08-08T06:46:30;98561.34;;;19.36;56.49
66801;BME280;53703;50.326;19.122;2023-08-08T06:49:03;98558.13;;;19.37;55.98
66801;BME280;53703;50.326;19.122;2023-08-08T06:51:38;98556.68;;;19.33;55.84
66801;BME280;53703;50.326;19.122;2023-08-08T06:54:12;98551.63;;;19.37;56.09
66801;BME280;53703;50.326;19.122;2023-08-08T06:56:45;98561.56;;;19.39;57.00
66801;BME280;53703;50.326;19.122;2023-08-08T06:59:18;98559.95;;;19.49;55.25
66801;BME280;53703;50.326;19.122;2023-08-08T07:01:52;98555.95;;;19.46;54.90
66801;BME280;53703;50.326;19.122;2023-08-08T07:04:25;98551.52;;;19.43;54.74
66801;BME280;53703;50.326;19.122;2023-08-08T07:06:58;98545.27;;;19.43;54.79
66801;BME280;53703;50.326;19.122;2023-08-08T07:09:32;98550.92;;;19.45;54.18
66801;BME280;53703;50.326;19.122;2023-08-08T07:12:07;98544.35;;;19.44;54.20
66801;BME280;53703;50.326;19.122;2023-08-08T07:14:41;98542.41;;;19.43;54.59
66801;BME280;53703;50.326;19.122;2023-08-08T07:17:14;98537.13;;;19.47;54.39
66801;BME280;53703;50.326;19.122;2023-08-08T07:19:47;98539.88;;;19.35;54.49
66801;BME280;53703;50.326;19.122;2023-08-08T07:22:21;98538.29;;;19.38;54.52
66801;BME280;53703;50.326;19.122;2023-08-08T07:24:54;98540.65;;;19.34;54.44
66801;BME280;53703;50.326;19.122;2023-08-08T07:27:28;98541.25;;;19.40;54.42
66801;BME280;53703;50.326;19.122;2023-08-08T07:30:02;98540.71;;;19.37;54.21
66801;BME280;53703;50.326;19.122;2023-08-08T07:32:35;98540.78;;;19.36;54.22
66801;BME280;53703;50.326;19.122;2023-08-08T07:35:09;98544.60;;;19.41;54.40
66801;BME280;53703;50.326;19.122;2023-08-08T07:37:43;98539.88;;;19.35;54.41
66801;BME280;53703;50.326;19.122;2023-08-08T07:40:20;98540.23;;;19.40;54.08
66801;BME280;53703;50.326;19.122;2023-08-08T07:42:54;98542.20;;;19.40;53.75
66801;BME280;53703;50.326;19.122;2023-08-08T07:45:27;98544.59;;;19.40;53.57
66801;BME280;53703;50.326;19.122;2023-08-08T07:48:00;98546.21;;;19.39;53.52
66801;BME280;53703;50.326;19.122;2023-08-08T07:50:34;98539.38;;;19.37;53.38
66801;BME280;53703;50.326;19.122;2023-08-08T07:53:07;98536.72;;;19.43;53.05
66801;BME280;53703;50.326;19.122;2023-08-08T07:55:41;98544.05;;;19.45;53.67
66801;BME280;53703;50.326;19.122;2023-08-08T07:58:14;98536.33;;;19.47;52.83
66801;BME280;53703;50.326;19.122;2023-08-08T08:00:48;98525.63;;;19.49;52.89
66801;BME280;53703;50.326;19.122;2023-08-08T08:03:21;98531.17;;;19.46;52.70
66801;BME280;53703;50.326;19.122;2023-08-08T08:05:55;98538.69;;;19.50;52.92
66801;BME280;53703;50.326;19.122;2023-08-08T08:08:28;98536.16;;;19.50;52.49
66801;BME280;53703;50.326;19.122;2023-08-08T08:11:02;98529.79;;;19.36;52.63
66801;BME280;53703;50.326;19.122;2023-08-08T08:13:35;98530.50;;;19.33;52.23
66801;BME280;53703;50.326;19.122;2023-08-08T08:16:09;98530.34;;;19.36;52.23
66801;BME280;53703;50.326;19.122;2023-08-08T08:18:42;98528.57;;;19.38;52.41
66801;BME280;53703;50.326;19.122;2023-08-08T08:21:15;98522.05;;;19.40;53.14
66801;BME280;53703;50.326;19.122;2023-08-08T08:23:49;98525.11;;;19.36;53.30
66801;BME280;53703;50.326;19.122;2023-08-08T08:26:23;98525.05;;;19.40;54.23
66801;BME280;53703;50.326;19.122;2023-08-08T08:28:56;98522.27;;;19.39;53.49
66801;BME280;53703;50.326;19.122;2023-08-08T08:31:29;98520.58;;;19.46;52.98
66801;BME280;53703;50.326;19.122;2023-08-08T08:34:03;98516.75;;;19.44;53.50
66801;BME280;53703;50.326;19.122;2023-08-08T08:36:36;98513.25;;;19.44;53.12
66801;BME280;53703;50.326;19.122;2023-08-08T08:39:10;98509.52;;;19.42;52.55
66801;BME280;53703;50.326;19.122;2023-08-08T08:41:44;98507.71;;;19.39;52.64
66801;BME280;53703;50.326;19.122;2023-08-08T08:44:22;98506.52;;;19.39;52.29
66801;BME280;53703;50.326;19.122;2023-08-08T08:46:57;98502.14;;;19.45;51.90
66801;BME280;53703;50.326;19.122;2023-08-08T08:49:32;98496.35;;;19.44;52.05
66801;BME280;53703;50.326;19.122;2023-08-08T08:52:06;98494.52;;;19.43;52.25
66801;BME280;53703;50.326;19.122;2023-08-08T08:54:39;98495.05;;;19.42;52.88
66801;BME280;53703;50.326;19.122;2023-08-08T08:57:12;98495.66;;;19.45;51.24
66801;BME280;53703;50.326;19.122;2023-08-08T08:59:46;98504.02;;;19.48;51.14
66801;BME280;53703;50.326;19.122;2023-08-08T09:02:20;98512.11;;;19.38;52.98
66801;BME280;53703;50.326;19.122;2023-08-08T09:04:54;98517.33;;;19.27;54.42
66801;BME280;53703;50.326;19.122;2023-08-08T09:07:27;98518.07;;;19.24;54.86
66801;BME280;53703;50.326;19.122;2023-08-08T09:10:02;98520.44;;;19.24;55.25
66801;BME280;53703;50.326;19.122;2023-08-08T09:12:36;98519.01;;;19.24;55.43
66801;BME280;53703;50.326;19.122;2023-08-08T09:15:12;98514.46;;;19.22;55.56
66801;BME280;53703;50.326;19.122;2023-08-08T09:17:45;98514.84;;;19.22;55.67
66801;BME280;53703;50.326;19.122;2023-08-08T09:20:21;98508.11;;;19.21;55.95
66801;BME280;53703;50.326;19.122;2023-08-08T09:22:55;98513.94;;;19.24;56.24
66801;BME280;53703;50.326;19.122;2023-08-08T09:25:29;98520.80;;;19.23;56.44
66801;BME280;53703;50.326;19.122;2023-08-08T09:28:02;98527.13;;;19.27;56.16
66801;BME280;53703;50.326;19.122;2023-08-08T09:30:36;98526.87;;;19.37;56.33
66801;BME280;53703;50.326;19.122;2023-08-08T09:33:09;98523.72;;;19.37;57.23
66801;BME280;53703;50.326;19.122;2023-08-08T09:35:42;98518.98;;;19.34;57.97
66801;BME280;53703;50.326;19.122;2023-08-08T09:38:17;98528.80;;;19.31;58.75
66801;BME280;53703;50.326;19.122;2023-08-08T09:40:51;98544.56;;;19.29;58.94
66801;BME280;53703;50.326;19.122;2023-08-08T09:43:25;98541.21;;;19.28;58.78
66801;BME280;53703;50.326;19.122;2023-08-08T09:45:59;98534.73;;;19.27;58.97
66801;BME280;53703;50.326;19.122;2023-08-08T09:48:34;98536.64;;;19.28;58.74
66801;BME280;53703;50.326;19.122;2023-08-08T09:51:08;98533.53;;;19.42;58.39
66801;BME280;53703;50.326;19.122;2023-08-08T09:53:42;98530.71;;;19.39;58.86
66801;BME280;53703;50.326;19.122;2023-08-08T09:56:17;98526.89;;;19.34;59.06
66801;BME280;53703;50.326;19.122;2023-08-08T09:58:52;98524.08;;;19.35;59.22
66801;BME280;53703;50.326;19.122;2023-08-08T10:01:26;98514.30;;;19.36;59.33
66801;BME280;53703;50.326;19.122;2023-08-08T10:04:00;98509.13;;;19.38;59.69
66801;BME280;53703;50.326;19.122;2023-08-08T10:06:36;98509.43;;;19.38;59.86
66801;BME280;53703;50.326;19.122;2023-08-08T10:09:10;98502.16;;;19.38;59.56
66801;BME280;53703;50.326;19.122;2023-08-08T10:11:43;98501.34;;;19.45;59.24
66801;BME280;53703;50.326;19.122;2023-08-08T10:14:17;98499.97;;;19.39;59.05
66801;BME280;53703;50.326;19.122;2023-08-08T10:16:51;98505.16;;;19.37;58.81
66801;BME280;53703;50.326;19.122;2023-08-08T10:19:26;98502.15;;;19.34;58.63
66801;BME280;53703;50.326;19.122;2023-08-08T10:22:04;98499.84;;;19.36;58.23
66801;BME280;53703;50.326;19.122;2023-08-08T10:24:38;98501.19;;;19.41;58.17
66801;BME280;53703;50.326;19.122;2023-08-08T10:27:11;98500.27;;;19.43;58.28
66801;BME280;53703;50.326;19.122;2023-08-08T10:29:47;98497.23;;;19.45;58.26
66801;BME280;53703;50.326;19.122;2023-08-08T10:32:25;98491.09;;;19.46;57.91
66801;BME280;53703;50.326;19.122;2023-08-08T10:35:05;98488.62;;;19.46;57.75
66801;BME280;53703;50.326;19.122;2023-08-08T10:37:39;98486.04;;;19.46;57.82
66801;BME280;53703;50.326;19.122;2023-08-08T10:40:18;98490.00;;;19.47;58.10
66801;BME280;53703;50.326;19.122;2023-08-08T10:42:53;98491.46;;;19.44;57.75
66801;BME280;53703;50.326;19.122;2023-08-08T10:45:31;98512.83;;;19.46;57.55
66801;BME280;53703;50.326;19.122;2023-08-08T10:48:10;98525.51;;;19.39;57.25
66801;BME280;53703;50.326;19.122;2023-08-08T10:50:43;98532.66;;;19.37;58.38
66801;BME280;53703;50.326;19.122;2023-08-08T10:53:17;98535.98;;;19.45;59.05
66801;BME280;53703;50.326;19.122;2023-08-08T10:55:58;98541.70;;;19.43;59.25
66801;BME280;53703;50.326;19.122;2023-08-08T10:58:40;98536.86;;;19.49;59.10
66801;BME280;53703;50.326;19.122;2023-08-08T11:01:20;98528.39;;;19.37;59.68
66801;BME280;53703;50.326;19.122;2023-08-08T11:09:15;98526.95;;;19.40;60.47
66801;BME280;53703;50.326;19.122;2023-08-08T11:11:48;98531.55;;;19.41;60.54
66801;BME280;53703;50.326;19.122;2023-08-08T11:14:23;98529.31;;;19.33;60.72
66801;BME280;53703;50.326;19.122;2023-08-08T11:16:57;98522.67;;;19.29;60.94
66801;BME280;53703;50.326;19.122;2023-08-08T11:19:30;98523.20;;;19.28;61.02
66801;BME280;53703;50.326;19.122;2023-08-08T11:22:12;98523.54;;;19.28;60.87
66801;BME280;53703;50.326;19.122;2023-08-08T11:24:45;98520.02;;;19.34;60.72
66801;BME280;53703;50.326;19.122;2023-08-08T11:27:18;98518.08;;;19.32;60.91
66801;BME280;53703;50.326;19.122;2023-08-08T11:29:55;98516.77;;;19.34;61.11
66801;BME280;53703;50.326;19.122;2023-08-08T11:32:30;98511.44;;;19.29;61.06
66801;BME280;53703;50.326;19.122;2023-08-08T11:35:03;98510.95;;;19.32;61.11
66801;BME280;53703;50.326;19.122;2023-08-08T11:37:37;98507.63;;;19.39;60.22
66801;BME280;53703;50.326;19.122;2023-08-08T11:40:12;98506.77;;;19.39;60.28
